createdAt,value
2023-05-16T00:01:31.236Z,12.51
2023-05-16T00:03:58.381Z,12.56
2023-05-16T00:06:25.512Z,12.52
2023-05-16T00:08:52.285Z,12.41
2023-05-16T00:11:18.997Z,12.42
2023-05-16T00:13:46.668Z,12.32
2023-05-16T00:16:14.683Z,12.32
2023-05-16T00:18:41.594Z,12.24
2023-05-16T00:21:08.455Z,12.22
2023-05-16T00:23:35.198Z,12.27
2023-05-16T00:26:01.949Z,12.29
2023-05-16T00:28:28.690Z,12.33
2023-05-16T00:30:55.474Z,12.29
2023-05-16T00:33:22.241Z,12.44
2023-05-16T00:35:49.323Z,12.45
2023-05-16T00:38:16.030Z,12.40
2023-05-16T00:40:42.740Z,12.34
2023-05-16T00:43:09.459Z,12.43
2023-05-16T00:45:36.211Z,12.40
2023-05-16T00:48:03.209Z,12.39
2023-05-16T00:50:30.036Z,12.35
2023-05-16T00:52:56.796Z,12.25
2023-05-16T00:55:23.563Z,12.27
2023-05-16T00:57:50.451Z,12.27
2023-05-16T01:00:17.841Z,12.25
2023-05-16T01:02:44.653Z,12.14
2023-05-16T01:05:11.516Z,12.15
2023-05-16T01:07:38.590Z,12.11
2023-05-16T01:10:06.091Z,12.15
2023-05-16T01:13:00.440Z,12.19
2023-05-16T01:15:32.468Z,12.12
2023-05-16T01:18:17.603Z,12.21
2023-05-16T01:20:50.194Z,12.21
2023-05-16T01:23:22.277Z,12.22
2023-05-16T01:25:57.452Z,12.16
2023-05-16T01:28:24.176Z,12.26
2023-05-16T01:30:51.215Z,12.05
2023-05-16T01:33:17.913Z,12.17
2023-05-16T01:35:52.562Z,12.24
2023-05-16T01:38:25.951Z,12.20
2023-05-16T01:40:55.579Z,12.29
2023-05-16T01:43:30.587Z,12.20
2023-05-16T01:46:09.281Z,12.20
2023-05-16T01:48:44.892Z,12.26
2023-05-16T01:51:11.619Z,12.20
2023-05-16T01:53:39.292Z,12.12
2023-05-16T01:56:09.292Z,12.10
2023-05-16T01:58:36.894Z,12.01
2023-05-16T02:01:05.127Z,11.87
2023-05-16T02:03:32.012Z,11.93
2023-05-16T02:05:58.831Z,11.87
2023-05-16T02:08:26.517Z,11.87
2023-05-16T02:10:53.575Z,11.86
2023-05-16T02:13:20.331Z,11.82
2023-05-16T02:15:47.065Z,11.68
2023-05-16T02:18:13.790Z,11.83
2023-05-16T02:20:40.684Z,11.85
2023-05-16T02:23:07.458Z,11.96
2023-05-16T02:25:34.209Z,11.98
2023-05-16T02:28:01.052Z,12.02
2023-05-16T02:30:27.876Z,11.95
2023-05-16T02:32:54.700Z,11.92
2023-05-16T02:35:21.522Z,12.02
2023-05-16T02:37:48.269Z,12.05
2023-05-16T02:40:15.460Z,12.05
2023-05-16T02:42:42.193Z,12.04
2023-05-16T02:45:09.364Z,12.03
2023-05-16T02:47:36.151Z,12.09
2023-05-16T02:50:03.744Z,12.05
2023-05-16T02:52:30.625Z,11.97
2023-05-16T02:55:09.931Z,12.12
2023-05-16T02:57:44.093Z,11.94
2023-05-16T03:00:12.013Z,12.08
2023-05-16T03:02:38.949Z,12.12
2023-05-16T03:05:06.388Z,12.10
2023-05-16T03:07:33.200Z,12.23
2023-05-16T03:09:59.939Z,12.17
2023-05-16T03:12:26.719Z,12.16
2023-05-16T03:14:53.685Z,12.18
2023-05-16T03:17:20.739Z,12.17
2023-05-16T03:19:47.562Z,12.27
2023-05-16T03:22:14.293Z,12.25
2023-05-16T03:24:41.088Z,12.33
2023-05-16T03:27:08.175Z,12.38
2023-05-16T03:29:35.288Z,12.37
2023-05-16T03:32:02.199Z,12.35
2023-05-16T03:34:29.341Z,12.45
2023-05-16T03:36:56.108Z,12.46
2023-05-16T03:39:22.921Z,12.46
2023-05-16T03:41:49.762Z,12.39
2023-05-16T03:44:16.482Z,12.32
2023-05-16T03:46:43.268Z,12.38
2023-05-16T03:49:09.992Z,12.36
2023-05-16T03:51:36.701Z,12.43
2023-05-16T03:54:03.530Z,12.40
2023-05-16T03:56:30.311Z,12.41
2023-05-16T03:58:57.027Z,12.46
2023-05-16T04:01:23.788Z,12.51
2023-05-16T04:03:51.181Z,12.51
2023-05-16T04:06:18.137Z,12.47
2023-05-16T04:08:45.119Z,12.55
2023-05-16T04:11:12.233Z,12.66
2023-05-16T04:13:39.065Z,12.81
2023-05-16T04:16:06.441Z,12.82
2023-05-16T04:18:33.255Z,12.89
2023-05-16T04:21:00.178Z,12.79
2023-05-16T04:23:27.016Z,12.72
2023-05-16T04:25:54.238Z,12.75
2023-05-16T04:28:21.131Z,12.77
2023-05-16T04:30:48.711Z,12.70
2023-05-16T04:33:15.654Z,12.81
2023-05-16T04:35:42.392Z,12.89
2023-05-16T04:38:09.096Z,13.12
2023-05-16T04:40:36.205Z,13.19
2023-05-16T04:43:02.880Z,13.37
2023-05-16T04:45:29.804Z,13.47
2023-05-16T04:47:56.923Z,13.51
2023-05-16T04:50:23.714Z,13.52
2023-05-16T04:52:50.424Z,13.49
2023-05-16T04:55:17.233Z,13.59
2023-05-16T04:57:44.125Z,13.47
2023-05-16T05:00:12.148Z,13.58
2023-05-16T05:02:39.089Z,13.48
2023-05-16T05:05:06.800Z,13.48
2023-05-16T05:07:33.639Z,13.53
2023-05-16T05:10:00.400Z,13.38
2023-05-16T05:12:28.166Z,13.48
2023-05-16T05:14:55.115Z,13.49
2023-05-16T05:17:22.534Z,13.61
2023-05-16T05:19:49.338Z,13.91
2023-05-16T05:22:16.408Z,14.17
2023-05-16T05:24:43.176Z,14.14
2023-05-16T05:27:10.032Z,14.23
2023-05-16T05:29:36.800Z,14.21
2023-05-16T05:32:03.831Z,14.24
2023-05-16T05:34:30.919Z,14.16
2023-05-16T05:36:57.656Z,14.10
2023-05-16T05:39:24.937Z,13.87
2023-05-16T05:41:51.682Z,13.92
2023-05-16T05:44:18.469Z,13.79
2023-05-16T05:46:45.202Z,13.70
2023-05-16T05:49:11.916Z,13.56
2023-05-16T05:51:38.739Z,13.55
2023-05-16T05:54:05.934Z,13.43
2023-05-16T05:56:32.664Z,13.55
2023-05-16T05:58:59.652Z,13.47
2023-05-16T06:01:26.532Z,13.52
2023-05-16T06:03:53.272Z,13.54
2023-05-16T06:06:20.062Z,13.44
2023-05-16T06:08:46.844Z,13.43
2023-05-16T06:11:13.537Z,13.44
2023-05-16T06:13:40.713Z,13.59
2023-05-16T06:16:09.453Z,13.78
2023-05-16T06:18:36.566Z,14.09
2023-05-16T06:21:03.656Z,14.22
2023-05-16T06:23:30.386Z,14.55
2023-05-16T06:25:57.372Z,14.79
2023-05-16T06:28:24.297Z,15.09
2023-05-16T06:30:52.127Z,15.34
2023-05-16T06:33:20.275Z,15.67
2023-05-16T06:35:48.711Z,15.90
2023-05-16T06:38:16.060Z,16.23
2023-05-16T06:40:42.863Z,16.40
2023-05-16T06:43:09.621Z,16.63
2023-05-16T06:45:36.458Z,16.71
2023-05-16T06:48:03.304Z,16.75
2023-05-16T06:50:30.042Z,16.52
2023-05-16T06:52:56.843Z,16.43
2023-05-16T06:55:23.721Z,16.56
2023-05-16T06:57:50.506Z,16.51
2023-05-16T07:00:17.729Z,16.54
2023-05-16T07:02:44.879Z,16.72
2023-05-16T07:05:11.785Z,16.97
2023-05-16T07:07:38.571Z,17.14
2023-05-16T07:10:05.551Z,17.54
2023-05-16T07:12:32.514Z,18.22
2023-05-16T07:14:59.687Z,18.98
2023-05-16T07:17:26.639Z,19.51
2023-05-16T07:19:53.465Z,19.76
2023-05-16T07:22:20.179Z,20.15
2023-05-16T07:24:46.921Z,20.65
2023-05-16T07:27:13.682Z,20.61
2023-05-16T07:29:41.405Z,20.41
2023-05-16T07:32:08.497Z,20.39
2023-05-16T07:34:35.534Z,20.14
2023-05-16T07:37:02.396Z,20.05
2023-05-16T07:39:29.122Z,19.74
2023-05-16T07:41:55.994Z,19.96
2023-05-16T07:44:23.290Z,20.10
2023-05-16T07:46:50.789Z,20.03
2023-05-16T07:49:17.597Z,20.05
2023-05-16T07:51:44.399Z,19.52
2023-05-16T07:54:11.210Z,19.19
2023-05-16T07:56:37.963Z,18.93
2023-05-16T07:59:06.057Z,18.66
2023-05-16T08:01:33.117Z,18.12
2023-05-16T08:03:59.948Z,17.94
2023-05-16T08:06:26.863Z,17.93
2023-05-16T08:08:53.673Z,18.07
2023-05-16T08:11:22.477Z,17.94
2023-05-16T08:13:49.911Z,17.77
2023-05-16T08:16:16.767Z,17.84
2023-05-16T08:18:43.639Z,18.07
2023-05-16T08:21:10.512Z,18.37
2023-05-16T08:23:37.339Z,18.80
2023-05-16T08:26:04.284Z,18.69
2023-05-16T08:28:31.357Z,18.53
2023-05-16T08:30:58.270Z,18.62
2023-05-16T08:33:25.156Z,18.55
2023-05-16T08:35:54.566Z,18.39
2023-05-16T08:38:21.576Z,17.99
2023-05-16T08:40:48.425Z,17.72
2023-05-16T08:43:15.286Z,17.58
2023-05-16T08:45:42.739Z,17.22
2023-05-16T08:48:10.979Z,17.08
2023-05-16T08:50:37.933Z,16.85
2023-05-16T08:53:08.457Z,16.89
2023-05-16T08:55:36.295Z,16.88
2023-05-16T08:58:03.475Z,17.31
2023-05-16T09:00:33.083Z,17.26
2023-05-16T09:03:01.187Z,17.31
2023-05-16T09:05:30.168Z,17.78
2023-05-16T09:07:57.240Z,18.02
2023-05-16T09:10:26.153Z,18.31
2023-05-16T09:12:53.075Z,18.68
2023-05-16T09:15:21.739Z,19.18
2023-05-16T09:17:49.261Z,19.58
2023-05-16T09:20:18.145Z,19.93
2023-05-16T09:23:05.153Z,20.22
2023-05-16T09:25:32.602Z,20.34
2023-05-16T09:28:03.386Z,20.45
2023-05-16T09:30:32.171Z,20.49
2023-05-16T09:32:59.412Z,20.64
2023-05-16T09:35:42.937Z,20.64
2023-05-16T09:38:17.890Z,21.00
2023-05-16T09:40:45.241Z,21.32
2023-05-16T09:43:12.448Z,21.29
2023-05-16T09:45:39.443Z,21.15
2023-05-16T09:48:10.158Z,21.24
2023-05-16T09:50:37.861Z,21.36
2023-05-16T09:53:04.949Z,21.25
2023-05-16T09:55:32.103Z,21.54
2023-05-16T09:57:58.948Z,21.64
2023-05-16T10:00:32.572Z,21.70
2023-05-16T10:03:03.232Z,21.48
2023-05-16T10:05:31.255Z,20.92
2023-05-16T10:07:58.283Z,20.53
2023-05-16T10:10:25.153Z,20.38
2023-05-16T10:12:52.480Z,20.37
2023-05-16T10:15:19.344Z,20.72
2023-05-16T10:17:46.403Z,22.24
2023-05-16T10:20:13.239Z,24.48
2023-05-16T10:22:43.009Z,25.87
2023-05-16T10:25:18.378Z,26.11
2023-05-16T10:27:45.285Z,24.24
2023-05-16T10:30:12.280Z,23.96
2023-05-16T10:32:41.891Z,23.34
2023-05-16T10:35:09.966Z,24.72
2023-05-16T10:37:36.941Z,25.12
2023-05-16T10:40:06.997Z,24.15
2023-05-16T10:42:33.967Z,25.08
2023-05-16T10:45:20.256Z,24.83
2023-05-16T10:48:01.748Z,24.58
2023-05-16T10:50:47.881Z,24.57
2023-05-16T10:53:33.814Z,23.08
2023-05-16T10:56:03.435Z,23.92
2023-05-16T10:58:39.034Z,24.10
2023-05-16T11:01:25.468Z,24.05
2023-05-16T11:04:01.683Z,24.23
2023-05-16T11:06:36.254Z,23.83
2023-05-16T11:09:12.061Z,23.18
2023-05-16T11:12:02.817Z,23.61
2023-05-16T11:14:37.648Z,22.41
2023-05-16T11:17:10.746Z,23.36
2023-05-16T11:19:59.636Z,23.11
2023-05-16T11:22:28.465Z,21.92
2023-05-16T11:24:59.809Z,21.05
2023-05-16T11:27:31.517Z,20.98
2023-05-16T11:30:06.566Z,21.64
2023-05-16T11:32:37.600Z,21.68
2023-05-16T11:35:09.094Z,22.14
2023-05-16T11:37:42.158Z,22.17
2023-05-16T11:40:11.423Z,22.12
2023-05-16T11:42:47.996Z,21.75
2023-05-16T11:45:17.831Z,21.45
2023-05-16T11:47:45.764Z,21.03
2023-05-16T11:50:24.911Z,21.11
2023-05-16T11:52:54.086Z,21.06
2023-05-16T11:55:33.207Z,21.37
2023-05-16T11:58:08.220Z,21.09
2023-05-16T12:00:35.214Z,20.91
2023-05-16T12:03:04.682Z,20.55
2023-05-16T12:05:33.339Z,19.51
2023-05-16T12:08:00.967Z,19.10
2023-05-16T12:10:27.997Z,18.59
2023-05-16T12:12:55.850Z,18.03
2023-05-16T12:15:22.723Z,17.77
2023-05-16T12:17:49.605Z,17.49
2023-05-16T12:20:16.685Z,17.71
2023-05-16T12:22:44.463Z,17.69
2023-05-16T12:25:30.947Z,17.88
2023-05-16T12:27:59.396Z,17.94
2023-05-16T12:30:27.719Z,17.85
2023-05-16T12:32:58.535Z,17.82
2023-05-16T12:35:33.318Z,17.86
2023-05-16T12:38:01.240Z,18.28
2023-05-16T12:40:31.252Z,18.94
2023-05-16T12:42:58.224Z,20.44
2023-05-16T12:45:26.289Z,21.50
2023-05-16T12:47:53.090Z,20.85
2023-05-16T12:50:19.861Z,20.23
2023-05-16T12:52:50.761Z,19.29
2023-05-16T12:55:18.563Z,18.72
2023-05-16T12:57:45.647Z,18.06
2023-05-16T13:00:13.060Z,17.86
2023-05-16T13:02:40.276Z,17.60
2023-05-16T13:05:10.529Z,17.50
2023-05-16T13:07:39.696Z,17.96
2023-05-16T13:10:10.792Z,17.98
2023-05-16T13:12:38.525Z,17.46
2023-05-16T13:15:09.640Z,16.85
2023-05-16T13:17:37.010Z,16.73
2023-05-16T13:20:11.792Z,16.35
2023-05-16T13:22:41.853Z,16.44
2023-05-16T13:25:09.076Z,16.45
2023-05-16T13:27:35.885Z,16.80
2023-05-16T13:30:04.210Z,16.88
2023-05-16T13:32:31.006Z,16.90
2023-05-16T13:34:57.906Z,16.48
2023-05-16T13:37:24.711Z,16.06
2023-05-16T13:39:52.593Z,16.11
2023-05-16T13:42:19.442Z,16.17
2023-05-16T13:44:46.259Z,16.28
2023-05-16T13:47:12.980Z,16.12
2023-05-16T13:49:39.782Z,15.89
2023-05-16T13:52:06.853Z,15.73
2023-05-16T13:54:33.734Z,15.55
2023-05-16T13:57:01.666Z,15.21
2023-05-16T13:59:55.266Z,15.12
2023-05-16T14:02:15.246Z,15.12
2023-05-16T14:04:42.017Z,15.23
2023-05-16T14:07:08.749Z,15.13
2023-05-16T14:09:39.146Z,14.99
2023-05-16T14:12:07.472Z,14.95
2023-05-16T14:14:35.680Z,14.97
2023-05-16T14:17:03.956Z,15.12
2023-05-16T14:19:31.485Z,15.24
2023-05-16T14:21:58.477Z,15.24
2023-05-16T14:24:25.371Z,15.19
2023-05-16T14:26:56.579Z,15.27
2023-05-16T14:29:27.073Z,15.13
2023-05-16T14:31:54.264Z,15.09
2023-05-16T14:34:22.488Z,14.84
2023-05-16T14:36:49.934Z,14.74
2023-05-16T14:39:16.692Z,14.69
2023-05-16T14:41:43.714Z,14.50
2023-05-16T14:44:10.422Z,14.51
2023-05-16T14:46:37.247Z,14.69
2023-05-16T14:49:04.181Z,14.85
2023-05-16T14:51:32.394Z,14.95
2023-05-16T14:53:59.225Z,14.55
2023-05-16T14:56:28.125Z,14.58
2023-05-16T14:58:54.905Z,14.59
2023-05-16T15:01:22.618Z,14.55
2023-05-16T15:03:55.269Z,14.45
2023-05-16T15:06:22.533Z,14.74
2023-05-16T15:08:49.458Z,14.83
2023-05-16T15:11:16.363Z,15.38
2023-05-16T15:13:43.129Z,15.56
2023-05-16T15:16:10.001Z,15.79
2023-05-16T15:18:36.993Z,16.33
2023-05-16T15:21:04.096Z,16.64
2023-05-16T15:23:30.954Z,16.94
2023-05-16T15:25:57.771Z,16.85
2023-05-16T15:28:24.541Z,16.89
2023-05-16T15:30:51.713Z,16.78
2023-05-16T15:33:18.472Z,16.90
2023-05-16T15:35:45.304Z,16.77
2023-05-16T15:38:12.083Z,16.74
2023-05-16T15:40:38.871Z,16.42
2023-05-16T15:43:05.681Z,16.36
2023-05-16T15:45:33.000Z,16.21
2023-05-16T15:47:59.927Z,15.90
2023-05-16T15:50:26.755Z,15.77
2023-05-16T15:52:53.589Z,15.73
2023-05-16T15:55:20.370Z,15.64
2023-05-16T15:57:47.176Z,15.12
2023-05-16T16:00:14.472Z,14.80
2023-05-16T16:02:43.219Z,14.54
2023-05-16T16:05:10.421Z,14.31
2023-05-16T16:07:37.180Z,14.15
2023-05-16T16:10:04.141Z,14.14
2023-05-16T16:12:31.257Z,14.07
2023-05-16T16:14:58.336Z,14.03
2023-05-16T16:17:25.119Z,13.92
2023-05-16T16:19:51.957Z,13.81
2023-05-16T16:22:19.770Z,13.67
2023-05-16T16:24:47.816Z,13.48
2023-05-16T16:27:14.607Z,13.25
2023-05-16T16:29:41.360Z,13.44
2023-05-16T16:32:08.390Z,13.24
2023-05-16T16:34:35.143Z,13.08
2023-05-16T16:37:02.700Z,13.42
2023-05-16T16:39:32.746Z,13.54
2023-05-16T16:42:00.001Z,13.50
2023-05-16T16:44:27.015Z,13.69
2023-05-16T16:46:53.953Z,13.84
2023-05-16T16:49:20.980Z,13.91
2023-05-16T16:51:47.838Z,13.85
2023-05-16T16:54:14.679Z,13.80
2023-05-16T16:56:41.764Z,13.83
2023-05-16T16:59:08.702Z,13.93
2023-05-16T17:01:35.611Z,13.90
2023-05-16T17:04:02.745Z,13.89
2023-05-16T17:06:30.289Z,14.01
2023-05-16T17:08:57.600Z,13.93
2023-05-16T17:11:24.443Z,13.96
2023-05-16T17:13:51.895Z,13.96
2023-05-16T17:16:18.765Z,13.92
2023-05-16T17:18:45.745Z,13.92
2023-05-16T17:21:13.248Z,13.90
2023-05-16T17:23:43.228Z,13.76
2023-05-16T17:26:10.700Z,13.53
2023-05-16T17:28:37.464Z,13.54
2023-05-16T17:31:04.338Z,13.52
2023-05-16T17:33:31.242Z,13.53
2023-05-16T17:35:58.159Z,13.52
2023-05-16T17:38:25.016Z,13.41
2023-05-16T17:40:51.767Z,13.32
2023-05-16T17:43:18.481Z,13.28
2023-05-16T17:45:45.260Z,13.27
2023-05-16T17:48:12.059Z,13.28
2023-05-16T17:50:39.265Z,13.14
2023-05-16T17:53:07.927Z,13.08
2023-05-16T17:55:36.144Z,12.94
2023-05-16T17:58:06.647Z,12.98
2023-05-16T18:00:33.513Z,12.87
2023-05-16T18:03:00.708Z,12.78
2023-05-16T18:05:28.733Z,12.81
2023-05-16T18:07:55.950Z,12.67
2023-05-16T18:10:22.901Z,12.58
2023-05-16T18:12:49.721Z,12.49
2023-05-16T18:15:16.841Z,12.44
2023-05-16T18:17:43.640Z,12.37
2023-05-16T18:20:11.769Z,12.30
2023-05-16T18:22:38.968Z,12.26
2023-05-16T18:25:06.918Z,12.10
2023-05-16T18:27:33.968Z,12.06
2023-05-16T18:30:00.883Z,11.99
2023-05-16T18:32:27.792Z,11.88
2023-05-16T18:34:54.623Z,11.67
2023-05-16T18:37:21.685Z,11.67
2023-05-16T18:39:49.030Z,11.62
2023-05-16T18:42:18.842Z,11.54
2023-05-16T18:44:45.807Z,11.47
2023-05-16T18:47:12.684Z,11.30
2023-05-16T18:49:39.559Z,11.26
2023-05-16T18:52:08.377Z,11.30
2023-05-16T18:54:36.290Z,11.10
2023-05-16T18:57:03.762Z,11.04
2023-05-16T18:59:30.678Z,11.08
2023-05-16T19:01:57.498Z,11.07
2023-05-16T19:04:24.329Z,11.17
2023-05-16T19:07:41.359Z,11.16
2023-05-16T19:10:08.777Z,11.12
2023-05-16T19:12:35.734Z,10.96
2023-05-16T19:15:02.498Z,10.91
2023-05-16T19:17:29.372Z,10.97
2023-05-16T19:19:56.532Z,10.95
2023-05-16T19:22:23.276Z,10.92
2023-05-16T19:24:50.247Z,11.03
2023-05-16T19:27:17.060Z,11.01
2023-05-16T19:29:43.886Z,10.79
2023-05-16T19:32:11.071Z,10.88
2023-05-16T19:34:38.043Z,10.71
2023-05-16T19:37:05.083Z,10.57
2023-05-16T19:39:32.268Z,10.73
2023-05-16T19:42:06.562Z,10.52
2023-05-16T19:44:34.118Z,10.65
2023-05-16T19:47:01.040Z,10.56
2023-05-16T19:49:28.789Z,10.53
2023-05-16T19:51:55.878Z,10.59
2023-05-16T19:54:22.746Z,10.51
2023-05-16T19:56:49.632Z,10.63
2023-05-16T19:59:16.704Z,10.43
2023-05-16T20:01:43.830Z,10.43
2023-05-16T20:04:11.781Z,10.49
2023-05-16T20:06:38.786Z,10.47
2023-05-16T20:09:06.346Z,10.57
2023-05-16T20:11:33.181Z,10.43
2023-05-16T20:14:00.385Z,10.31
2023-05-16T20:16:27.578Z,10.37
2023-05-16T20:18:54.454Z,10.39
2023-05-16T20:21:21.313Z,10.24
2023-05-16T20:23:48.070Z,10.22
2023-05-16T20:26:15.231Z,10.21
2023-05-16T20:28:42.286Z,10.29
2023-05-16T20:31:09.220Z,10.13
2023-05-16T20:33:36.200Z,10.20
2023-05-16T20:36:03.498Z,10.09
2023-05-16T20:38:30.354Z,10.13
2023-05-16T20:40:57.056Z,10.00
2023-05-16T20:43:26.528Z,9.93
2023-05-16T20:45:53.567Z,9.86
2023-05-16T20:48:20.995Z,9.83
2023-05-16T20:50:48.047Z,9.74
2023-05-16T20:53:14.836Z,9.74
2023-05-16T20:55:41.547Z,9.52
2023-05-16T20:58:08.326Z,9.59
2023-05-16T21:00:35.192Z,9.48
2023-05-16T21:03:02.084Z,9.43
2023-05-16T21:05:28.856Z,9.49
2023-05-16T21:07:55.703Z,9.37
2023-05-16T21:10:22.464Z,9.35
2023-05-16T21:12:50.317Z,9.21
2023-05-16T21:15:17.182Z,9.17
2023-05-16T21:17:44.054Z,9.22
2023-05-16T21:20:11.134Z,9.25
2023-05-16T21:22:37.896Z,9.12
2023-05-16T21:25:05.286Z,9.09
2023-05-16T21:27:32.996Z,8.98
2023-05-16T21:29:59.787Z,8.75
2023-05-16T21:32:32.126Z,8.72
2023-05-16T21:35:01.137Z,8.71
2023-05-16T21:37:28.002Z,8.86
2023-05-16T21:39:54.804Z,8.68
2023-05-16T21:42:21.637Z,8.68
2023-05-16T21:44:48.369Z,8.58
2023-05-16T21:47:15.134Z,8.56
2023-05-16T21:49:41.970Z,8.32
2023-05-16T21:52:08.736Z,8.34
2023-05-16T21:54:35.616Z,8.42
2023-05-16T21:57:02.331Z,8.47
2023-05-16T21:59:29.097Z,8.50
2023-05-16T22:01:55.832Z,8.57
2023-05-16T22:04:23.666Z,8.60
2023-05-16T22:06:50.727Z,8.47
2023-05-16T22:09:17.448Z,8.59
2023-05-16T22:11:44.246Z,8.51
2023-05-16T22:14:11.058Z,8.55
2023-05-16T22:16:37.892Z,8.44
2023-05-16T22:19:04.665Z,8.60
2023-05-16T22:21:31.431Z,8.59
2023-05-16T22:23:58.138Z,8.44
2023-05-16T22:26:24.877Z,8.34
2023-05-16T22:28:51.662Z,8.35
2023-05-16T22:31:18.381Z,8.50
2023-05-16T22:33:45.229Z,8.42
2023-05-16T22:36:12.098Z,8.29
2023-05-16T22:38:38.910Z,8.39
2023-05-16T22:41:06.303Z,8.29
2023-05-16T22:43:33.049Z,8.19
2023-05-16T22:46:02.890Z,8.20
2023-05-16T22:48:30.098Z,7.96
2023-05-16T22:50:57.514Z,8.18
2023-05-16T22:53:24.352Z,8.21
2023-05-16T22:55:51.190Z,8.22
2023-05-16T22:58:17.963Z,8.01
2023-05-16T23:00:44.774Z,8.10
2023-05-16T23:03:11.658Z,8.20
2023-05-16T23:05:41.484Z,8.07
2023-05-16T23:08:08.357Z,8.20
2023-05-16T23:10:35.168Z,8.16
2023-05-16T23:13:02.026Z,8.11
2023-05-16T23:15:29.000Z,8.14
2023-05-16T23:17:59.208Z,7.83
2023-05-16T23:20:26.019Z,7.97
2023-05-16T23:22:52.820Z,7.83
2023-05-16T23:25:19.699Z,8.02
2023-05-16T23:27:46.537Z,8.01
2023-05-16T23:30:13.577Z,7.90
2023-05-16T23:32:40.346Z,8.02
2023-05-16T23:35:07.625Z,7.94
2023-05-16T23:38:00.175Z,8.04
2023-05-16T23:40:28.054Z,7.94
2023-05-16T23:42:54.776Z,7.92
2023-05-16T23:45:21.536Z,7.97
2023-05-16T23:47:48.398Z,7.92
2023-05-16T23:50:17.377Z,8.00
2023-05-16T23:52:44.312Z,8.12
2023-05-16T23:55:11.037Z,8.09
2023-05-16T23:57:41.109Z,8.00
